createdAt,value
2017-07-06T00:01:47.020Z,5.07
2017-07-06T00:04:14.636Z,4.70
2017-07-06T00:06:42.255Z,5.30
2017-07-06T00:09:10.123Z,4.80
2017-07-06T00:11:37.758Z,4.63
2017-07-06T00:14:05.366Z,4.47
2017-07-06T00:16:33.739Z,5.03
2017-07-06T00:19:02.138Z,4.57
2017-07-06T00:21:29.753Z,4.83
2017-07-06T00:23:57.358Z,4.83
2017-07-06T00:26:25.961Z,5.37
2017-07-06T00:28:53.596Z,4.70
2017-07-06T00:31:21.215Z,5.07
2017-07-06T00:33:48.838Z,5.20
2017-07-06T00:36:16.509Z,5.00
2017-07-06T00:38:45.801Z,4.60
2017-07-06T00:41:13.457Z,5.10
2017-07-06T00:43:41.089Z,5.03
2017-07-06T00:46:08.691Z,4.57
2017-07-06T00:48:36.318Z,4.60
2017-07-06T00:51:03.919Z,5.37
2017-07-06T00:53:31.586Z,5.17
2017-07-06T00:55:59.225Z,5.03
2017-07-06T00:58:26.888Z,6.00
2017-07-06T01:00:54.477Z,5.10
2017-07-06T01:03:22.124Z,5.23
2017-07-06T01:05:49.739Z,5.33
2017-07-06T01:08:17.380Z,4.87
2017-07-06T01:10:45.012Z,5.70
2017-07-06T01:13:12.686Z,5.03
2017-07-06T01:15:40.296Z,5.60
2017-07-06T01:18:08.736Z,4.87
2017-07-06T01:20:36.412Z,5.20
2017-07-06T01:23:04.023Z,5.10
2017-07-06T01:25:32.955Z,5.60
2017-07-06T01:28:00.598Z,4.90
2017-07-06T01:30:30.660Z,5.47
2017-07-06T01:32:58.347Z,4.67
2017-07-06T01:35:25.951Z,6.00
2017-07-06T01:37:53.626Z,5.13
2017-07-06T01:40:21.346Z,5.60
2017-07-06T01:42:48.996Z,4.80
2017-07-06T01:45:16.673Z,4.87
2017-07-06T01:47:44.463Z,4.77
2017-07-06T01:50:12.946Z,5.00
2017-07-06T01:52:40.576Z,5.43
2017-07-06T01:55:08.205Z,5.00
2017-07-06T01:57:36.809Z,5.97
2017-07-06T02:00:04.552Z,4.83
2017-07-06T02:02:32.227Z,5.90
2017-07-06T02:05:01.551Z,5.77
2017-07-06T02:07:29.197Z,5.47
2017-07-06T02:09:57.805Z,5.00
2017-07-06T02:12:25.448Z,5.80
2017-07-06T02:14:53.066Z,4.27
2017-07-06T02:17:20.689Z,5.33
2017-07-06T02:19:48.689Z,5.47
2017-07-06T02:22:17.161Z,5.50
2017-07-06T02:24:44.814Z,5.30
2017-07-06T02:27:12.417Z,5.20
2017-07-06T02:29:40.089Z,5.17
2017-07-06T02:32:07.749Z,5.20
2017-07-06T02:34:35.586Z,5.37
2017-07-06T02:37:03.678Z,5.20
2017-07-06T02:39:31.339Z,5.57
2017-07-06T02:41:59.005Z,6.17
2017-07-06T02:44:26.601Z,6.10
2017-07-06T02:46:56.056Z,5.47
2017-07-06T02:49:24.437Z,5.60
2017-07-06T02:51:55.778Z,5.20
2017-07-06T02:54:23.390Z,5.20
2017-07-06T02:56:50.999Z,4.87
2017-07-06T02:59:18.645Z,5.13
2017-07-06T03:01:46.254Z,4.70
2017-07-06T03:04:16.587Z,5.00
2017-07-06T03:06:44.231Z,5.30
2017-07-06T03:09:13.246Z,4.60
2017-07-06T03:11:40.850Z,3.83
2017-07-06T03:14:09.384Z,4.90
2017-07-06T03:16:38.670Z,4.67
2017-07-06T03:19:07.398Z,4.40
2017-07-06T03:21:35.541Z,4.00
2017-07-06T03:24:03.439Z,4.63
2017-07-06T03:26:31.299Z,4.57
2017-07-06T03:28:58.957Z,4.60
2017-07-06T03:31:27.497Z,4.60
2017-07-06T03:33:57.069Z,4.50
2017-07-06T03:36:24.743Z,4.07
2017-07-06T03:38:52.978Z,4.10
2017-07-06T03:41:20.565Z,4.50
2017-07-06T03:43:48.222Z,4.17
2017-07-06T03:46:17.639Z,4.17
2017-07-06T03:48:46.877Z,3.93
2017-07-06T03:51:14.497Z,4.70
2017-07-06T03:53:42.557Z,4.10
2017-07-06T03:56:10.430Z,3.97
2017-07-06T03:58:38.048Z,3.70
2017-07-06T04:01:06.672Z,4.00
2017-07-06T04:03:34.340Z,3.93
2017-07-06T04:06:01.941Z,3.33
2017-07-06T04:08:29.588Z,3.90
2017-07-06T04:10:57.221Z,3.97
2017-07-06T04:13:24.840Z,3.50
2017-07-06T04:15:52.495Z,3.53
2017-07-06T04:18:20.141Z,4.30
2017-07-06T04:20:47.749Z,4.00
2017-07-06T04:23:15.390Z,3.90
2017-07-06T04:25:43.065Z,3.83
2017-07-06T04:28:10.664Z,3.73
2017-07-06T04:30:39.393Z,3.70
2017-07-06T04:33:07.561Z,3.70
2017-07-06T04:35:35.161Z,3.90
2017-07-06T04:38:02.756Z,3.60
2017-07-06T04:40:31.304Z,3.30
2017-07-06T04:42:58.898Z,3.70
2017-07-06T04:45:26.542Z,3.93
2017-07-06T04:47:54.191Z,3.63
2017-07-06T04:50:21.802Z,3.53
2017-07-06T04:52:50.187Z,4.10
2017-07-06T04:55:18.636Z,3.53
2017-07-06T04:57:46.369Z,3.83
2017-07-06T05:00:14.135Z,3.80
2017-07-06T05:02:41.755Z,3.73
2017-07-06T05:05:09.341Z,3.97
2017-07-06T05:07:37.715Z,4.03
2017-07-06T05:10:05.342Z,4.30
2017-07-06T05:12:33.009Z,4.00
2017-07-06T05:15:00.589Z,3.87
2017-07-06T05:17:28.235Z,3.20
2017-07-06T05:19:55.817Z,3.97
2017-07-06T05:22:23.411Z,3.90
2017-07-06T05:24:51.049Z,4.20
2017-07-06T05:27:18.658Z,4.67
2017-07-06T05:29:47.045Z,4.10
2017-07-06T05:32:15.415Z,4.27
2017-07-06T05:34:43.813Z,4.60
2017-07-06T05:37:11.438Z,4.50
2017-07-06T05:39:39.085Z,4.87
2017-07-06T05:42:06.712Z,4.53
2017-07-06T05:44:34.360Z,4.30
2017-07-06T05:47:01.994Z,4.80
2017-07-06T05:49:29.580Z,4.60
2017-07-06T05:51:57.164Z,5.13
2017-07-06T05:54:28.816Z,4.60
2017-07-06T05:56:56.476Z,4.40
2017-07-06T05:59:24.235Z,4.40
2017-07-06T06:01:51.884Z,4.43
2017-07-06T06:04:19.489Z,4.33
2017-07-06T06:06:47.874Z,4.97
2017-07-06T06:09:16.280Z,4.73
2017-07-06T06:11:43.885Z,4.80
2017-07-06T06:14:11.526Z,4.50
2017-07-06T06:16:39.205Z,4.40
2017-07-06T06:19:06.835Z,4.43
2017-07-06T06:21:35.227Z,4.83
2017-07-06T06:24:03.625Z,4.67
2017-07-06T06:26:31.264Z,4.80
2017-07-06T06:28:58.905Z,4.73
2017-07-06T06:31:26.557Z,4.33
2017-07-06T06:33:54.181Z,4.27
2017-07-06T06:36:21.814Z,4.30
2017-07-06T06:38:50.248Z,4.70
2017-07-06T06:41:17.873Z,4.93
2017-07-06T06:43:45.542Z,5.00
2017-07-06T06:46:14.119Z,4.50
2017-07-06T06:48:41.901Z,4.63
2017-07-06T06:51:10.459Z,4.50
2017-07-06T06:53:38.155Z,4.47
2017-07-06T06:56:06.586Z,4.87
2017-07-06T06:58:34.274Z,4.87
2017-07-06T07:01:01.990Z,5.13
2017-07-06T07:03:29.731Z,4.83
2017-07-06T07:05:58.146Z,4.33
2017-07-06T07:08:29.095Z,4.80
2017-07-06T07:10:58.117Z,4.87
2017-07-06T07:13:25.899Z,4.50
2017-07-06T07:15:53.632Z,4.30
2017-07-06T07:18:21.342Z,5.33
2017-07-06T07:20:48.958Z,4.83
2017-07-06T07:23:16.701Z,4.40
2017-07-06T07:25:46.204Z,4.80
2017-07-06T07:28:13.992Z,5.60
2017-07-06T07:30:41.939Z,5.20
2017-07-06T07:33:10.801Z,4.47
2017-07-06T07:35:39.742Z,4.83
2017-07-06T07:38:08.232Z,4.57
2017-07-06T07:40:35.896Z,5.20
2017-07-06T07:43:03.605Z,4.30
2017-07-06T07:45:31.411Z,4.40
2017-07-06T07:47:59.145Z,4.67
2017-07-06T07:50:26.858Z,4.90
2017-07-06T07:52:54.502Z,4.23
2017-07-06T07:55:22.949Z,4.50
2017-07-06T07:57:50.704Z,4.97
2017-07-06T08:00:20.386Z,5.00
2017-07-06T08:02:48.070Z,4.40
2017-07-06T08:05:17.445Z,4.57
2017-07-06T08:10:17.654Z,5.13
2017-07-06T08:12:45.381Z,6.03
2017-07-06T08:15:13.129Z,4.37
2017-07-06T08:17:40.940Z,4.90
2017-07-06T08:20:08.632Z,5.63
2017-07-06T08:22:36.249Z,4.83
2017-07-06T08:25:04.386Z,4.60
2017-07-06T08:27:32.066Z,4.90
2017-07-06T08:29:59.748Z,5.50
2017-07-06T08:32:27.403Z,7.13
2017-07-06T08:34:55.391Z,5.60
2017-07-06T08:37:23.352Z,3.97
2017-07-06T08:39:51.673Z,5.30
2017-07-06T08:42:21.347Z,5.20
2017-07-06T08:44:49.318Z,5.57
2017-07-06T08:47:17.034Z,4.50
2017-07-06T08:49:44.663Z,5.70
2017-07-06T08:52:12.746Z,4.80
2017-07-06T08:54:41.552Z,4.80
2017-07-06T08:57:09.277Z,5.40
2017-07-06T08:59:37.058Z,4.80
2017-07-06T09:02:04.798Z,4.17
2017-07-06T09:04:32.468Z,4.40
2017-07-06T09:07:00.117Z,4.80
2017-07-06T09:09:29.048Z,5.00
2017-07-06T09:11:56.703Z,4.73
2017-07-06T09:14:24.443Z,4.77
2017-07-06T09:16:52.984Z,4.70
2017-07-06T09:19:20.672Z,4.70
2017-07-06T09:21:48.367Z,5.03
2017-07-06T09:24:16.052Z,4.93
2017-07-06T09:26:43.757Z,4.87
2017-07-06T09:29:11.541Z,5.77
2017-07-06T09:31:39.472Z,5.23
2017-07-06T09:34:07.171Z,5.10
2017-07-06T09:36:34.827Z,4.90
2017-07-06T09:39:03.117Z,4.80
2017-07-06T09:41:30.779Z,5.17
2017-07-06T09:43:58.514Z,5.30
2017-07-06T09:46:26.249Z,4.93
2017-07-06T09:48:55.476Z,5.57
2017-07-06T09:51:23.163Z,5.17
2017-07-06T09:53:50.859Z,4.67
2017-07-06T10:00:29.612Z,4.37
2017-07-06T10:02:57.479Z,4.70
2017-07-06T10:05:26.373Z,5.20
2017-07-06T10:07:54.296Z,4.40
2017-07-06T10:10:22.144Z,6.03
2017-07-06T10:12:50.066Z,5.33
2017-07-06T10:15:17.907Z,4.70
2017-07-06T10:17:45.752Z,5.27
2017-07-06T10:20:13.641Z,4.87
2017-07-06T10:22:41.599Z,5.23
2017-07-06T10:25:09.450Z,6.53
2017-07-06T10:27:37.331Z,5.67
2017-07-06T10:30:05.177Z,5.70
2017-07-06T10:32:32.995Z,5.27
2017-07-06T10:35:02.048Z,4.70
2017-07-06T10:37:29.962Z,5.43
2017-07-06T10:39:57.788Z,4.53
2017-07-06T10:42:25.679Z,5.90
2017-07-06T10:44:53.501Z,4.63
2017-07-06T10:47:21.318Z,4.10
2017-07-06T10:49:49.177Z,4.67
2017-07-06T10:52:17.852Z,5.03
2017-07-06T10:54:45.693Z,4.83
2017-07-06T10:57:14.081Z,4.87
2017-07-06T10:59:41.915Z,5.23
2017-07-06T11:02:09.741Z,4.73
2017-07-06T11:04:37.628Z,4.73
2017-07-06T11:07:05.432Z,4.60
2017-07-06T11:09:33.412Z,5.50
2017-07-06T11:12:01.217Z,4.80
2017-07-06T11:14:29.082Z,4.90
2017-07-06T11:16:57.930Z,5.20
2017-07-06T11:19:26.564Z,4.27
2017-07-06T11:21:54.490Z,4.30
2017-07-06T11:24:24.229Z,4.70
2017-07-06T11:26:52.135Z,4.00
2017-07-06T11:29:20.045Z,5.10
2017-07-06T11:31:48.849Z,4.83
2017-07-06T11:34:16.724Z,4.30
2017-07-06T11:36:44.568Z,5.13
2017-07-06T11:39:13.323Z,5.10
2017-07-06T11:41:41.210Z,4.17
2017-07-06T11:44:09.238Z,5.20
2017-07-06T11:46:37.165Z,4.63
2017-07-06T11:49:05.709Z,4.90
2017-07-06T11:51:33.569Z,5.90
2017-07-06T11:54:03.011Z,4.40
2017-07-06T11:56:31.286Z,4.70
2017-07-06T11:58:59.294Z,4.93
2017-07-06T12:01:27.531Z,4.10
2017-07-06T12:03:56.178Z,3.90
2017-07-06T12:06:24.068Z,4.00
2017-07-06T12:08:51.954Z,4.17
2017-07-06T12:11:23.394Z,3.90
2017-07-06T12:13:51.278Z,4.30
2017-07-06T12:16:19.214Z,4.37
2017-07-06T12:18:47.197Z,4.20
2017-07-06T12:21:16.073Z,4.00
2017-07-06T12:23:44.735Z,4.50
2017-07-06T12:26:12.589Z,3.80
2017-07-06T12:28:42.822Z,3.20
2017-07-06T12:31:10.963Z,3.83
2017-07-06T12:33:38.846Z,4.70
2017-07-06T12:39:01.247Z,4.20
2017-07-06T12:41:36.890Z,5.03
2017-07-06T12:44:04.714Z,4.90
2017-07-06T12:46:33.441Z,4.80
2017-07-06T12:49:01.345Z,4.70
2017-07-06T12:51:29.161Z,4.80
2017-07-06T12:53:57.243Z,5.33
2017-07-06T12:56:25.611Z,4.50
2017-07-06T13:01:39.225Z,4.10
2017-07-06T13:04:08.258Z,4.30
2017-07-06T13:06:36.210Z,3.90
2017-07-06T13:09:05.777Z,4.70
2017-07-06T13:11:33.725Z,4.47
2017-07-06T13:14:01.596Z,4.00
2017-07-06T13:16:29.499Z,4.70
2017-07-06T13:18:57.345Z,4.30
2017-07-06T13:21:25.294Z,4.27
2017-07-06T13:23:53.919Z,3.73
2017-07-06T13:26:21.742Z,4.60
2017-07-06T13:28:50.371Z,4.73
2017-07-06T13:31:18.190Z,3.67
2017-07-06T13:33:46.853Z,5.20
2017-07-06T13:36:14.819Z,5.20
2017-07-06T13:38:42.663Z,5.10
2017-07-06T13:41:10.485Z,3.80
2017-07-06T13:43:39.068Z,4.20
2017-07-06T13:46:06.958Z,4.30
2017-07-06T13:48:34.933Z,4.40
2017-07-06T13:51:03.089Z,4.33
2017-07-06T13:53:31.684Z,4.23
2017-07-06T13:55:59.599Z,3.80
2017-07-06T13:58:27.423Z,4.40
2017-07-06T14:00:55.225Z,5.50
2017-07-06T14:03:23.086Z,3.90
2017-07-06T14:05:50.892Z,3.53
2017-07-06T14:08:18.970Z,4.20
2017-07-06T14:10:46.809Z,4.57
2017-07-06T14:13:14.645Z,4.53
2017-07-06T14:15:43.542Z,4.40
2017-07-06T14:18:11.395Z,4.23
2017-07-06T14:20:39.829Z,4.13
2017-07-06T14:23:08.433Z,4.10
2017-07-06T14:25:36.722Z,4.30
2017-07-06T14:28:04.614Z,4.30
2017-07-06T14:30:32.399Z,4.60
2017-07-06T14:33:00.289Z,4.40
2017-07-06T14:35:28.657Z,4.40
2017-07-06T14:37:56.606Z,5.00
2017-07-06T14:40:24.492Z,4.57
2017-07-06T14:42:52.299Z,4.60
2017-07-06T14:45:20.167Z,4.43
2017-07-06T14:47:48.080Z,5.33
2017-07-06T14:50:17.078Z,5.03
2017-07-06T14:52:45.008Z,4.83
2017-07-06T14:55:12.810Z,4.53
2017-07-06T14:57:42.570Z,4.80
2017-07-06T15:00:10.399Z,5.07
2017-07-06T15:02:38.265Z,4.97
2017-07-06T15:05:07.090Z,5.00
2017-07-06T15:07:35.965Z,4.37
2017-07-06T15:10:03.840Z,4.30
2017-07-06T15:12:31.796Z,5.30
2017-07-06T15:14:59.705Z,5.47
2017-07-06T15:17:27.603Z,4.53
2017-07-06T15:19:55.448Z,4.03
2017-07-06T15:22:23.391Z,4.20
2017-07-06T15:24:51.237Z,4.07
2017-07-06T15:27:19.075Z,4.50
2017-07-06T15:29:46.979Z,4.40
2017-07-06T15:32:15.600Z,4.97
2017-07-06T15:34:43.538Z,4.70
2017-07-06T15:37:11.435Z,4.40
2017-07-06T15:39:39.246Z,4.40
2017-07-06T15:42:07.101Z,4.63
2017-07-06T15:44:35.024Z,4.40
2017-07-06T15:47:02.838Z,5.10
2017-07-06T15:49:30.770Z,4.37
2017-07-06T15:51:58.668Z,4.80
2017-07-06T15:54:26.521Z,4.90
2017-07-06T15:56:55.107Z,5.33
2017-07-06T15:59:23.762Z,4.70
2017-07-06T16:01:52.485Z,4.50
2017-07-06T16:04:21.353Z,4.10
2017-07-06T16:06:50.125Z,4.63
2017-07-06T16:09:18.044Z,4.30
2017-07-06T16:11:45.863Z,4.70
2017-07-06T16:14:14.261Z,3.97
2017-07-06T16:16:42.122Z,4.33
2017-07-06T16:19:09.997Z,4.50
2017-07-06T16:21:37.872Z,4.70
2017-07-06T16:24:05.810Z,4.57
2017-07-06T16:26:33.693Z,4.50
2017-07-06T16:29:01.799Z,4.50
2017-07-06T16:31:29.726Z,4.57
2017-07-06T16:33:57.900Z,5.00
2017-07-06T16:36:26.611Z,4.30
2017-07-06T16:38:54.541Z,5.00
2017-07-06T16:41:22.698Z,4.57
2017-07-06T16:43:50.718Z,4.97
2017-07-06T16:46:28.252Z,4.43
2017-07-06T16:48:56.600Z,4.97
2017-07-06T16:51:24.437Z,4.70
2017-07-06T16:53:52.292Z,4.67
2017-07-06T16:56:20.489Z,5.50
2017-07-06T16:58:48.310Z,5.27
2017-07-06T17:01:16.278Z,4.10
2017-07-06T17:03:44.148Z,4.40
2017-07-06T17:06:12.040Z,4.30
2017-07-06T17:08:39.964Z,4.93
2017-07-06T17:11:08.098Z,4.23
2017-07-06T17:13:36.252Z,4.63
2017-07-06T17:16:05.591Z,4.07
2017-07-06T17:18:34.465Z,4.23
2017-07-06T17:21:02.334Z,4.27
2017-07-06T17:23:31.323Z,4.37
2017-07-06T17:25:59.391Z,4.30
2017-07-06T17:28:27.375Z,4.30
2017-07-06T17:30:55.369Z,4.27
2017-07-06T17:33:23.179Z,4.17
2017-07-06T17:35:52.066Z,4.30
2017-07-06T17:38:22.671Z,5.00
2017-07-06T17:40:50.592Z,4.60
2017-07-06T17:43:18.495Z,4.70
2017-07-06T17:45:50.137Z,4.70
2017-07-06T17:48:19.065Z,4.30
2017-07-06T17:50:47.839Z,4.87
2017-07-06T17:53:15.768Z,4.70
2017-07-06T17:55:44.588Z,4.33
2017-07-06T17:58:12.477Z,4.60
2017-07-06T18:00:40.427Z,4.90
2017-07-06T18:03:08.329Z,4.43
2017-07-06T18:05:36.252Z,3.90
2017-07-06T18:08:05.182Z,4.30
2017-07-06T18:10:33.053Z,4.87
2017-07-06T18:13:01.742Z,4.40
2017-07-06T18:15:29.659Z,4.73
2017-07-06T18:17:57.473Z,4.20
2017-07-06T18:20:25.355Z,4.63
2017-07-06T18:22:53.283Z,4.40
2017-07-06T18:25:21.101Z,4.47
2017-07-06T18:27:49.032Z,4.50
2017-07-06T18:30:16.929Z,4.87
2017-07-06T18:32:44.825Z,4.20
2017-07-06T18:35:12.780Z,3.80
2017-07-06T18:37:40.679Z,3.83
2017-07-06T18:40:13.486Z,4.37
2017-07-06T18:42:41.455Z,4.40
2017-07-06T18:45:09.374Z,4.63
2017-07-06T18:47:38.213Z,4.50
2017-07-06T18:50:06.119Z,4.00
2017-07-06T18:52:33.967Z,4.73
2017-07-06T18:55:01.856Z,4.30
2017-07-06T18:57:29.688Z,4.10
2017-07-06T18:59:57.502Z,4.30
2017-07-06T19:02:25.322Z,5.07
2017-07-06T19:04:53.170Z,4.47
2017-07-06T19:07:21.771Z,4.57
2017-07-06T19:09:50.601Z,4.97
2017-07-06T19:12:18.493Z,4.40
2017-07-06T19:14:46.432Z,4.70
2017-07-06T19:17:15.589Z,5.10
2017-07-06T19:19:44.519Z,5.43
2017-07-06T19:22:12.414Z,6.17
2017-07-06T19:24:40.299Z,18.33
2017-07-06T19:27:09.011Z,13.30
2017-07-06T19:29:38.159Z,11.43
2017-07-06T19:32:06.829Z,10.20
2017-07-06T19:34:34.687Z,10.17
2017-07-06T19:37:02.739Z,7.70
2017-07-06T19:39:31.380Z,7.30
2017-07-06T19:41:59.187Z,5.77
2017-07-06T19:44:26.972Z,4.60
2017-07-06T19:46:54.847Z,5.03
2017-07-06T19:49:22.780Z,4.63
2017-07-06T19:51:50.653Z,4.50
2017-07-06T19:54:18.512Z,5.30
2017-07-06T19:56:46.373Z,5.60
2017-07-06T19:59:14.244Z,5.23
2017-07-06T20:01:42.242Z,5.40
2017-07-06T20:04:10.157Z,4.90
2017-07-06T20:06:38.369Z,5.03
2017-07-06T20:09:06.441Z,5.30
2017-07-06T20:11:34.410Z,5.30
2017-07-06T20:14:03.767Z,4.60
2017-07-06T20:16:31.631Z,4.80
2017-07-06T20:19:00.026Z,4.50
2017-07-06T20:21:27.866Z,4.90
2017-07-06T20:23:55.757Z,4.80
2017-07-06T20:26:24.764Z,4.70
2017-07-06T20:28:52.738Z,4.50
2017-07-06T20:31:20.724Z,5.00
2017-07-06T20:33:48.583Z,4.70
2017-07-06T20:36:16.503Z,4.60
2017-07-06T20:38:44.385Z,5.17
2017-07-06T20:41:12.233Z,4.90
2017-07-06T20:43:40.123Z,4.70
2017-07-06T20:46:08.132Z,4.60
2017-07-06T20:48:36.202Z,5.73
2017-07-06T20:51:04.130Z,5.80
2017-07-06T20:53:32.040Z,5.30
2017-07-06T20:56:00.001Z,4.60
2017-07-06T20:58:27.935Z,5.30
2017-07-06T21:00:55.822Z,5.53
2017-07-06T21:03:24.425Z,5.07
2017-07-06T21:05:53.236Z,4.70
2017-07-06T21:08:21.173Z,5.63
2017-07-06T21:10:49.041Z,5.20
2017-07-06T21:13:17.037Z,4.90
2017-07-06T21:15:44.966Z,5.07
2017-07-06T21:18:12.804Z,5.03
2017-07-06T21:20:40.703Z,5.40
2017-07-06T21:23:08.747Z,5.07
2017-07-06T21:25:36.573Z,5.30
2017-07-06T21:28:05.218Z,4.83
2017-07-06T21:30:33.206Z,5.23
2017-07-06T21:33:01.058Z,5.17
2017-07-06T21:35:29.042Z,5.10
2017-07-06T21:37:57.004Z,5.23
2017-07-06T21:40:24.995Z,5.73
2017-07-06T21:42:52.958Z,5.53
2017-07-06T21:45:20.904Z,5.53
2017-07-06T21:47:49.169Z,5.10
2017-07-06T21:50:18.830Z,5.57
2017-07-06T21:52:46.809Z,5.37
2017-07-06T21:55:21.393Z,5.50
2017-07-06T21:57:50.233Z,5.70
2017-07-06T22:00:18.988Z,5.90
2017-07-06T22:02:55.653Z,5.50
2017-07-06T22:05:25.508Z,5.53
2017-07-06T22:07:53.187Z,5.80
2017-07-06T22:10:20.979Z,5.77
2017-07-06T22:12:48.712Z,5.43
2017-07-06T22:15:16.429Z,5.70
2017-07-06T22:17:44.141Z,5.20
2017-07-06T22:20:11.836Z,5.57
2017-07-06T22:22:39.525Z,4.93
2017-07-06T22:25:07.259Z,5.60
2017-07-06T22:27:35.015Z,5.10
2017-07-06T22:30:02.749Z,5.33
2017-07-06T22:32:31.372Z,4.90
2017-07-06T22:34:59.708Z,4.80
2017-07-06T22:37:27.411Z,5.53
2017-07-06T22:39:55.110Z,5.20
2017-07-06T22:42:23.583Z,4.97
2017-07-06T22:44:51.270Z,4.47
2017-07-06T22:47:19.071Z,5.23
2017-07-06T22:49:46.781Z,5.17
2017-07-06T22:52:14.473Z,4.90
2017-07-06T22:54:42.237Z,5.50
2017-07-06T22:57:09.920Z,4.90
2017-07-06T22:59:38.381Z,4.50
2017-07-06T23:02:06.139Z,5.87
2017-07-06T23:04:33.841Z,5.07
2017-07-06T23:07:02.299Z,4.70
2017-07-06T23:09:30.037Z,5.10
2017-07-06T23:11:57.720Z,4.60
2017-07-06T23:14:25.435Z,4.80
2017-07-06T23:16:53.911Z,5.50
2017-07-06T23:19:22.399Z,5.00
2017-07-06T23:21:51.023Z,4.70
2017-07-06T23:24:19.157Z,5.70
2017-07-06T23:26:46.943Z,4.77
2017-07-06T23:29:15.459Z,5.57
2017-07-06T23:31:43.227Z,5.30
2017-07-06T23:34:10.946Z,4.57
2017-07-06T23:36:38.635Z,6.07
2017-07-06T23:39:07.132Z,5.20
2017-07-06T23:41:34.850Z,5.43
2017-07-06T23:44:02.569Z,5.20
2017-07-06T23:46:30.253Z,4.80
2017-07-06T23:48:58.031Z,6.00
2017-07-06T23:51:25.733Z,5.00
2017-07-06T23:53:53.451Z,5.30
2017-07-06T23:56:21.536Z,5.27
2017-07-06T23:58:49.247Z,5.70
